sensor_id;sensor_type;location;lat;lon;timestamp;P1;durP1;ratioP1;P2;durP2;ratioP2
70373;SDS011;57792;49.198;7.890;2022-09-09T00:00:16;6.13;;;1.60;;
70373;SDS011;57792;49.198;7.890;2022-09-09T00:02:24;4.47;;;1.70;;
70373;SDS011;57792;49.198;7.890;2022-09-09T00:03:31;4.22;;;1.60;;
70373;SDS011;57792;49.198;7.890;2022-09-09T00:04:54;8.27;;;1.80;;
70373;SDS011;57792;49.198;7.890;2022-09-09T00:06:15;5.05;;;1.67;;
70373;SDS011;57792;49.198;7.890;2022-09-09T00:14:38;5.80;;;1.77;;
70373;SDS011;57792;49.198;7.890;2022-09-09T00:15:57;24.27;;;2.20;;
70373;SDS011;57792;49.198;7.890;2022-09-09T00:17:11;5.38;;;1.58;;
70373;SDS011;57792;49.198;7.890;2022-09-09T00:18:24;4.45;;;1.67;;
70373;SDS011;57792;49.198;7.890;2022-09-09T00:19:28;5.00;;;1.60;;
70373;SDS011;57792;49.198;7.890;2022-09-09T00:21:07;3.92;;;1.50;;
70373;SDS011;57792;49.198;7.890;2022-09-09T00:22:19;7.55;;;1.80;;
70373;SDS011;57792;49.198;7.890;2022-09-09T00:24:35;11.15;;;1.90;;
70373;SDS011;57792;49.198;7.890;2022-09-09T00:25:47;49.87;;;3.47;;
70373;SDS011;57792;49.198;7.890;2022-09-09T00:26:56;34.22;;;2.45;;
70373;SDS011;57792;49.198;7.890;2022-09-09T00:28:10;5.60;;;1.80;;
70373;SDS011;57792;49.198;7.890;2022-09-09T00:30:31;11.48;;;1.88;;
70373;SDS011;57792;49.198;7.890;2022-09-09T00:31:34;9.75;;;1.70;;
70373;SDS011;57792;49.198;7.890;2022-09-09T00:32:37;9.90;;;1.90;;
70373;SDS011;57792;49.198;7.890;2022-09-09T00:33:37;12.13;;;2.25;;
70373;SDS011;57792;49.198;7.890;2022-09-09T00:34:47;37.13;;;3.03;;
70373;SDS011;57792;49.198;7.890;2022-09-09T00:36:00;29.33;;;2.67;;
70373;SDS011;57792;49.198;7.890;2022-09-09T00:37:02;20.23;;;2.05;;
70373;SDS011;57792;49.198;7.890;2022-09-09T00:39:38;5.10;;;1.48;;
70373;SDS011;57792;49.198;7.890;2022-09-09T00:49:00;10.43;;;1.77;;
70373;SDS011;57792;49.198;7.890;2022-09-09T00:51:59;7.95;;;1.50;;
70373;SDS011;57792;49.198;7.890;2022-09-09T00:53:24;4.00;;;1.50;;
70373;SDS011;57792;49.198;7.890;2022-09-09T00:54:35;5.25;;;1.52;;
70373;SDS011;57792;49.198;7.890;2022-09-09T00:55:49;3.90;;;1.30;;
70373;SDS011;57792;49.198;7.890;2022-09-09T00:58:29;5.97;;;1.40;;
70373;SDS011;57792;49.198;7.890;2022-09-09T00:59:48;7.07;;;1.67;;
70373;SDS011;57792;49.198;7.890;2022-09-09T01:00:53;7.13;;;1.70;;
70373;SDS011;57792;49.198;7.890;2022-09-09T01:03:59;3.97;;;1.55;;
70373;SDS011;57792;49.198;7.890;2022-09-09T01:05:48;3.90;;;1.60;;
70373;SDS011;57792;49.198;7.890;2022-09-09T01:06:34;3.93;;;1.50;;
70373;SDS011;57792;49.198;7.890;2022-09-09T01:07:38;6.13;;;1.67;;
70373;SDS011;57792;49.198;7.890;2022-09-09T01:10:15;6.30;;;1.60;;
70373;SDS011;57792;49.198;7.890;2022-09-09T01:11:41;4.00;;;1.42;;
70373;SDS011;57792;49.198;7.890;2022-09-09T01:12:49;4.15;;;1.50;;
70373;SDS011;57792;49.198;7.890;2022-09-09T01:13:55;5.25;;;1.55;;
70373;SDS011;57792;49.198;7.890;2022-09-09T01:15:12;6.75;;;1.52;;
70373;SDS011;57792;49.198;7.890;2022-09-09T01:16:17;5.22;;;1.55;;
70373;SDS011;57792;49.198;7.890;2022-09-09T01:17:22;4.33;;;1.50;;
70373;SDS011;57792;49.198;7.890;2022-09-09T01:18:28;15.35;;;1.85;;
70373;SDS011;57792;49.198;7.890;2022-09-09T01:20:55;3.93;;;1.50;;
70373;SDS011;57792;49.198;7.890;2022-09-09T01:22:03;4.15;;;1.42;;
70373;SDS011;57792;49.198;7.890;2022-09-09T01:24:31;4.35;;;1.80;;
70373;SDS011;57792;49.198;7.890;2022-09-09T01:27:09;5.35;;;1.42;;
70373;SDS011;57792;49.198;7.890;2022-09-09T01:28:11;5.55;;;1.55;;
70373;SDS011;57792;49.198;7.890;2022-09-09T01:29:17;3.70;;;1.50;;
70373;SDS011;57792;49.198;7.890;2022-09-09T01:30:19;4.40;;;1.50;;
70373;SDS011;57792;49.198;7.890;2022-09-09T01:31:26;4.28;;;1.50;;
70373;SDS011;57792;49.198;7.890;2022-09-09T01:33:44;5.07;;;1.40;;
70373;SDS011;57792;49.198;7.890;2022-09-09T01:34:45;3.55;;;1.25;;
70373;SDS011;57792;49.198;7.890;2022-09-09T01:35:50;4.10;;;1.60;;
70373;SDS011;57792;49.198;7.890;2022-09-09T01:38:01;5.07;;;1.60;;
70373;SDS011;57792;49.198;7.890;2022-09-09T01:39:02;4.30;;;1.50;;
70373;SDS011;57792;49.198;7.890;2022-09-09T01:40:02;4.00;;;1.50;;
70373;SDS011;57792;49.198;7.890;2022-09-09T01:41:03;3.95;;;1.40;;
70373;SDS011;57792;49.198;7.890;2022-09-09T01:42:04;4.03;;;1.40;;
70373;SDS011;57792;49.198;7.890;2022-09-09T01:43:07;4.10;;;1.37;;
70373;SDS011;57792;49.198;7.890;2022-09-09T01:44:08;4.30;;;1.50;;
70373;SDS011;57792;49.198;7.890;2022-09-09T01:45:09;3.53;;;1.27;;
70373;SDS011;57792;49.198;7.890;2022-09-09T01:46:10;3.55;;;1.23;;
70373;SDS011;57792;49.198;7.890;2022-09-09T01:47:12;3.80;;;1.20;;
70373;SDS011;57792;49.198;7.890;2022-09-09T01:48:14;3.40;;;1.23;;
70373;SDS011;57792;49.198;7.890;2022-09-09T01:49:15;4.20;;;1.40;;
70373;SDS011;57792;49.198;7.890;2022-09-09T01:50:16;4.35;;;1.35;;
70373;SDS011;57792;49.198;7.890;2022-09-09T01:51:17;5.25;;;1.27;;
70373;SDS011;57792;49.198;7.890;2022-09-09T01:52:17;6.73;;;1.30;;
70373;SDS011;57792;49.198;7.890;2022-09-09T01:53:18;4.30;;;1.50;;
70373;SDS011;57792;49.198;7.890;2022-09-09T01:54:20;4.88;;;1.80;;
70373;SDS011;57792;49.198;7.890;2022-09-09T01:55:31;13.32;;;1.67;;
70373;SDS011;57792;49.198;7.890;2022-09-09T01:57:59;6.22;;;1.60;;
70373;SDS011;57792;49.198;7.890;2022-09-09T02:00:56;3.60;;;1.30;;
70373;SDS011;57792;49.198;7.890;2022-09-09T02:02:19;3.40;;;1.02;;
70373;SDS011;57792;49.198;7.890;2022-09-09T02:03:29;3.20;;;1.20;;
70373;SDS011;57792;49.198;7.890;2022-09-09T02:04:52;3.60;;;1.10;;
70373;SDS011;57792;49.198;7.890;2022-09-09T02:08:52;4.20;;;1.55;;
70373;SDS011;57792;49.198;7.890;2022-09-09T02:09:57;4.55;;;1.20;;
70373;SDS011;57792;49.198;7.890;2022-09-09T02:12:16;5.45;;;1.70;;
70373;SDS011;57792;49.198;7.890;2022-09-09T02:13:23;4.57;;;1.48;;
70373;SDS011;57792;49.198;7.890;2022-09-09T02:14:27;4.05;;;1.45;;
70373;SDS011;57792;49.198;7.890;2022-09-09T02:15:43;4.50;;;1.50;;
70373;SDS011;57792;49.198;7.890;2022-09-09T02:17:06;4.13;;;1.60;;
70373;SDS011;57792;49.198;7.890;2022-09-09T02:18:10;5.90;;;1.70;;
70373;SDS011;57792;49.198;7.890;2022-09-09T02:19:18;5.50;;;1.60;;
70373;SDS011;57792;49.198;7.890;2022-09-09T02:20:26;3.63;;;1.40;;
70373;SDS011;57792;49.198;7.890;2022-09-09T02:21:29;4.13;;;1.58;;
70373;SDS011;57792;49.198;7.890;2022-09-09T02:22:31;4.15;;;1.40;;
70373;SDS011;57792;49.198;7.890;2022-09-09T02:23:34;5.68;;;1.50;;
70373;SDS011;57792;49.198;7.890;2022-09-09T02:24:37;4.32;;;1.30;;
70373;SDS011;57792;49.198;7.890;2022-09-09T02:25:40;3.60;;;1.20;;
70373;SDS011;57792;49.198;7.890;2022-09-09T02:26:42;4.75;;;1.52;;
70373;SDS011;57792;49.198;7.890;2022-09-09T02:27:46;3.47;;;1.13;;
70373;SDS011;57792;49.198;7.890;2022-09-09T02:28:49;3.58;;;1.30;;
70373;SDS011;57792;49.198;7.890;2022-09-09T02:29:51;3.53;;;1.33;;
70373;SDS011;57792;49.198;7.890;2022-09-09T02:30:53;5.70;;;1.30;;
70373;SDS011;57792;49.198;7.890;2022-09-09T02:31:55;4.95;;;1.40;;
70373;SDS011;57792;49.198;7.890;2022-09-09T02:33:03;4.00;;;1.15;;
70373;SDS011;57792;49.198;7.890;2022-09-09T02:34:06;3.80;;;1.30;;
70373;SDS011;57792;49.198;7.890;2022-09-09T02:35:13;5.05;;;1.20;;
70373;SDS011;57792;49.198;7.890;2022-09-09T02:36:15;5.25;;;1.50;;
70373;SDS011;57792;49.198;7.890;2022-09-09T02:37:18;3.03;;;1.00;;
70373;SDS011;57792;49.198;7.890;2022-09-09T02:38:21;5.60;;;1.40;;
70373;SDS011;57792;49.198;7.890;2022-09-09T02:39:28;3.50;;;1.20;;
70373;SDS011;57792;49.198;7.890;2022-09-09T02:40:29;4.68;;;1.33;;
70373;SDS011;57792;49.198;7.890;2022-09-09T02:41:33;3.60;;;1.30;;
70373;SDS011;57792;49.198;7.890;2022-09-09T02:42:42;3.80;;;1.20;;
70373;SDS011;57792;49.198;7.890;2022-09-09T02:43:43;4.57;;;1.20;;
70373;SDS011;57792;49.198;7.890;2022-09-09T02:44:44;3.33;;;1.13;;
70373;SDS011;57792;49.198;7.890;2022-09-09T02:45:51;3.28;;;1.20;;
70373;SDS011;57792;49.198;7.890;2022-09-09T02:48:23;6.03;;;1.17;;
70373;SDS011;57792;49.198;7.890;2022-09-09T02:51:18;3.20;;;1.10;;
70373;SDS011;57792;49.198;7.890;2022-09-09T02:54:38;3.30;;;1.10;;
70373;SDS011;57792;49.198;7.890;2022-09-09T02:56:43;4.10;;;1.20;;
70373;SDS011;57792;49.198;7.890;2022-09-09T02:57:49;3.25;;;1.10;;
70373;SDS011;57792;49.198;7.890;2022-09-09T02:58:52;3.65;;;1.13;;
70373;SDS011;57792;49.198;7.890;2022-09-09T02:59:52;3.90;;;1.50;;
70373;SDS011;57792;49.198;7.890;2022-09-09T03:00:56;3.95;;;1.20;;
70373;SDS011;57792;49.198;7.890;2022-09-09T03:01:58;4.32;;;1.30;;
70373;SDS011;57792;49.198;7.890;2022-09-09T03:02:59;4.47;;;1.37;;
70373;SDS011;57792;49.198;7.890;2022-09-09T03:03:59;4.28;;;1.38;;
70373;SDS011;57792;49.198;7.890;2022-09-09T03:04:59;3.50;;;1.20;;
70373;SDS011;57792;49.198;7.890;2022-09-09T03:06:00;5.60;;;1.30;;
70373;SDS011;57792;49.198;7.890;2022-09-09T03:07:01;3.95;;;1.00;;
70373;SDS011;57792;49.198;7.890;2022-09-09T03:08:03;4.05;;;1.10;;
70373;SDS011;57792;49.198;7.890;2022-09-09T03:09:05;5.80;;;1.23;;
70373;SDS011;57792;49.198;7.890;2022-09-09T03:10:06;5.17;;;1.10;;
70373;SDS011;57792;49.198;7.890;2022-09-09T03:11:06;6.75;;;1.40;;
70373;SDS011;57792;49.198;7.890;2022-09-09T03:12:07;3.50;;;1.20;;
70373;SDS011;57792;49.198;7.890;2022-09-09T03:13:08;6.13;;;1.30;;
70373;SDS011;57792;49.198;7.890;2022-09-09T03:14:08;6.43;;;1.63;;
70373;SDS011;57792;49.198;7.890;2022-09-09T03:15:11;5.88;;;1.60;;
70373;SDS011;57792;49.198;7.890;2022-09-09T03:16:11;7.77;;;1.40;;
70373;SDS011;57792;49.198;7.890;2022-09-09T03:17:11;5.60;;;1.40;;
70373;SDS011;57792;49.198;7.890;2022-09-09T03:18:12;5.00;;;1.30;;
70373;SDS011;57792;49.198;7.890;2022-09-09T03:19:12;5.53;;;1.30;;
70373;SDS011;57792;49.198;7.890;2022-09-09T03:20:13;4.40;;;1.30;;
70373;SDS011;57792;49.198;7.890;2022-09-09T03:21:13;4.10;;;1.40;;
70373;SDS011;57792;49.198;7.890;2022-09-09T03:22:14;6.80;;;1.55;;
70373;SDS011;57792;49.198;7.890;2022-09-09T03:23:14;4.00;;;1.20;;
70373;SDS011;57792;49.198;7.890;2022-09-09T03:24:15;6.40;;;1.30;;
70373;SDS011;57792;49.198;7.890;2022-09-09T03:25:15;4.73;;;1.40;;
70373;SDS011;57792;49.198;7.890;2022-09-09T03:26:16;5.13;;;1.45;;
70373;SDS011;57792;49.198;7.890;2022-09-09T03:27:16;6.07;;;1.40;;
70373;SDS011;57792;49.198;7.890;2022-09-09T03:28:17;3.70;;;1.33;;
70373;SDS011;57792;49.198;7.890;2022-09-09T03:29:18;4.38;;;1.20;;
70373;SDS011;57792;49.198;7.890;2022-09-09T03:30:18;5.22;;;1.40;;
70373;SDS011;57792;49.198;7.890;2022-09-09T03:31:19;6.33;;;1.20;;
70373;SDS011;57792;49.198;7.890;2022-09-09T03:32:19;3.40;;;1.00;;
70373;SDS011;57792;49.198;7.890;2022-09-09T03:33:22;4.28;;;1.10;;
70373;SDS011;57792;49.198;7.890;2022-09-09T03:34:22;5.60;;;1.07;;
70373;SDS011;57792;49.198;7.890;2022-09-09T03:35:23;3.45;;;1.10;;
70373;SDS011;57792;49.198;7.890;2022-09-09T03:36:24;4.73;;;1.30;;
70373;SDS011;57792;49.198;7.890;2022-09-09T03:37:26;3.53;;;1.05;;
70373;SDS011;57792;49.198;7.890;2022-09-09T03:38:26;4.17;;;1.10;;
70373;SDS011;57792;49.198;7.890;2022-09-09T03:39:28;3.65;;;1.00;;
70373;SDS011;57792;49.198;7.890;2022-09-09T03:40:29;3.47;;;1.10;;
70373;SDS011;57792;49.198;7.890;2022-09-09T03:41:30;6.65;;;1.30;;
70373;SDS011;57792;49.198;7.890;2022-09-09T03:42:31;3.23;;;1.00;;
70373;SDS011;57792;49.198;7.890;2022-09-09T03:43:31;6.10;;;1.17;;
70373;SDS011;57792;49.198;7.890;2022-09-09T03:44:32;3.22;;;1.00;;
70373;SDS011;57792;49.198;7.890;2022-09-09T03:45:33;5.22;;;1.00;;
70373;SDS011;57792;49.198;7.890;2022-09-09T03:46:33;5.67;;;1.20;;
70373;SDS011;57792;49.198;7.890;2022-09-09T03:47:34;6.00;;;1.40;;
70373;SDS011;57792;49.198;7.890;2022-09-09T03:48:35;3.65;;;1.08;;
70373;SDS011;57792;49.198;7.890;2022-09-09T03:49:35;4.27;;;1.27;;
70373;SDS011;57792;49.198;7.890;2022-09-09T03:50:35;3.53;;;1.20;;
70373;SDS011;57792;49.198;7.890;2022-09-09T03:51:36;6.10;;;1.30;;
70373;SDS011;57792;49.198;7.890;2022-09-09T03:52:37;3.50;;;1.23;;
70373;SDS011;57792;49.198;7.890;2022-09-09T03:53:39;3.97;;;1.20;;
70373;SDS011;57792;49.198;7.890;2022-09-09T03:54:39;6.10;;;1.23;;
70373;SDS011;57792;49.198;7.890;2022-09-09T03:55:45;4.53;;;1.30;;
70373;SDS011;57792;49.198;7.890;2022-09-09T03:56:47;4.22;;;1.38;;
70373;SDS011;57792;49.198;7.890;2022-09-09T03:57:47;4.22;;;1.30;;
70373;SDS011;57792;49.198;7.890;2022-09-09T03:58:47;4.68;;;1.45;;
70373;SDS011;57792;49.198;7.890;2022-09-09T03:59:48;5.00;;;1.20;;
70373;SDS011;57792;49.198;7.890;2022-09-09T04:01:54;3.95;;;1.20;;
70373;SDS011;57792;49.198;7.890;2022-09-09T04:02:55;3.40;;;1.20;;
70373;SDS011;57792;49.198;7.890;2022-09-09T04:03:56;5.18;;;1.20;;
70373;SDS011;57792;49.198;7.890;2022-09-09T04:04:58;4.32;;;1.20;;
70373;SDS011;57792;49.198;7.890;2022-09-09T04:06:00;4.30;;;1.23;;
70373;SDS011;57792;49.198;7.890;2022-09-09T04:07:02;3.97;;;1.10;;
70373;SDS011;57792;49.198;7.890;2022-09-09T04:08:02;5.18;;;1.10;;
70373;SDS011;57792;49.198;7.890;2022-09-09T04:09:03;3.30;;;1.10;;
70373;SDS011;57792;49.198;7.890;2022-09-09T04:10:03;4.60;;;1.20;;
70373;SDS011;57792;49.198;7.890;2022-09-09T04:11:04;5.03;;;1.10;;
70373;SDS011;57792;49.198;7.890;2022-09-09T04:12:06;4.32;;;1.20;;
70373;SDS011;57792;49.198;7.890;2022-09-09T04:13:06;6.10;;;1.10;;
70373;SDS011;57792;49.198;7.890;2022-09-09T04:14:07;4.23;;;1.10;;
70373;SDS011;57792;49.198;7.890;2022-09-09T04:15:07;3.20;;;1.10;;
70373;SDS011;57792;49.198;7.890;2022-09-09T04:16:09;4.63;;;1.08;;
70373;SDS011;57792;49.198;7.890;2022-09-09T04:17:11;7.10;;;1.48;;
70373;SDS011;57792;49.198;7.890;2022-09-09T04:18:11;4.10;;;1.10;;
70373;SDS011;57792;49.198;7.890;2022-09-09T04:19:12;3.60;;;1.17;;
70373;SDS011;57792;49.198;7.890;2022-09-09T04:20:13;4.50;;;1.30;;
70373;SDS011;57792;49.198;7.890;2022-09-09T04:21:14;4.87;;;1.30;;
70373;SDS011;57792;49.198;7.890;2022-09-09T04:22:16;5.22;;;1.30;;
70373;SDS011;57792;49.198;7.890;2022-09-09T04:23:16;3.57;;;1.20;;
70373;SDS011;57792;49.198;7.890;2022-09-09T04:24:18;4.47;;;1.20;;
70373;SDS011;57792;49.198;7.890;2022-09-09T04:25:19;3.40;;;1.20;;
70373;SDS011;57792;49.198;7.890;2022-09-09T04:26:20;3.67;;;1.20;;
70373;SDS011;57792;49.198;7.890;2022-09-09T04:27:20;3.57;;;1.10;;
70373;SDS011;57792;49.198;7.890;2022-09-09T04:28:21;4.15;;;1.10;;
70373;SDS011;57792;49.198;7.890;2022-09-09T04:29:23;4.57;;;1.08;;
70373;SDS011;57792;49.198;7.890;2022-09-09T04:30:24;3.97;;;1.10;;
70373;SDS011;57792;49.198;7.890;2022-09-09T04:31:25;5.83;;;1.30;;
70373;SDS011;57792;49.198;7.890;2022-09-09T04:32:25;3.53;;;1.10;;
70373;SDS011;57792;49.198;7.890;2022-09-09T04:33:28;5.15;;;1.33;;
70373;SDS011;57792;49.198;7.890;2022-09-09T04:34:30;4.55;;;1.00;;
70373;SDS011;57792;49.198;7.890;2022-09-09T04:35:31;3.47;;;1.10;;
70373;SDS011;57792;49.198;7.890;2022-09-09T04:36:31;3.90;;;0.90;;
70373;SDS011;57792;49.198;7.890;2022-09-09T04:37:32;4.85;;;1.17;;
70373;SDS011;57792;49.198;7.890;2022-09-09T04:38:33;4.13;;;1.27;;
70373;SDS011;57792;49.198;7.890;2022-09-09T04:39:33;3.90;;;1.20;;
70373;SDS011;57792;49.198;7.890;2022-09-09T04:40:34;3.78;;;1.17;;
70373;SDS011;57792;49.198;7.890;2022-09-09T04:41:34;4.75;;;1.40;;
70373;SDS011;57792;49.198;7.890;2022-09-09T04:42:38;3.57;;;1.13;;
70373;SDS011;57792;49.198;7.890;2022-09-09T04:43:39;3.20;;;1.02;;
70373;SDS011;57792;49.198;7.890;2022-09-09T04:44:39;3.20;;;1.10;;
70373;SDS011;57792;49.198;7.890;2022-09-09T04:45:44;3.13;;;1.02;;
70373;SDS011;57792;49.198;7.890;2022-09-09T04:46:47;5.38;;;1.33;;
70373;SDS011;57792;49.198;7.890;2022-09-09T04:47:48;5.63;;;1.30;;
70373;SDS011;57792;49.198;7.890;2022-09-09T04:48:49;3.60;;;1.30;;
70373;SDS011;57792;49.198;7.890;2022-09-09T04:49:50;4.35;;;1.20;;
70373;SDS011;57792;49.198;7.890;2022-09-09T04:50:55;3.33;;;1.10;;
70373;SDS011;57792;49.198;7.890;2022-09-09T04:51:56;4.85;;;1.30;;
70373;SDS011;57792;49.198;7.890;2022-09-09T04:52:59;5.73;;;1.60;;
70373;SDS011;57792;49.198;7.890;2022-09-09T04:54:02;3.90;;;1.20;;
70373;SDS011;57792;49.198;7.890;2022-09-09T04:55:03;4.10;;;1.30;;
70373;SDS011;57792;49.198;7.890;2022-09-09T04:56:05;3.67;;;1.20;;
70373;SDS011;57792;49.198;7.890;2022-09-09T04:57:05;5.28;;;1.10;;
70373;SDS011;57792;49.198;7.890;2022-09-09T04:58:07;5.05;;;1.20;;
70373;SDS011;57792;49.198;7.890;2022-09-09T04:59:08;5.55;;;1.10;;
70373;SDS011;57792;49.198;7.890;2022-09-09T05:00:09;3.92;;;1.33;;
70373;SDS011;57792;49.198;7.890;2022-09-09T05:01:14;5.03;;;1.40;;
70373;SDS011;57792;49.198;7.890;2022-09-09T05:02:17;3.55;;;1.38;;
70373;SDS011;57792;49.198;7.890;2022-09-09T05:03:17;4.83;;;1.40;;
70373;SDS011;57792;49.198;7.890;2022-09-09T05:04:18;3.83;;;1.38;;
70373;SDS011;57792;49.198;7.890;2022-09-09T05:05:19;4.70;;;1.30;;
70373;SDS011;57792;49.198;7.890;2022-09-09T05:06:20;3.40;;;1.20;;
70373;SDS011;57792;49.198;7.890;2022-09-09T05:07:21;3.70;;;1.10;;
70373;SDS011;57792;49.198;7.890;2022-09-09T05:08:22;4.20;;;1.30;;
70373;SDS011;57792;49.198;7.890;2022-09-09T05:09:22;4.63;;;1.30;;
70373;SDS011;57792;49.198;7.890;2022-09-09T05:10:23;3.77;;;1.40;;
70373;SDS011;57792;49.198;7.890;2022-09-09T05:11:27;4.90;;;1.30;;
70373;SDS011;57792;49.198;7.890;2022-09-09T05:12:29;5.40;;;1.30;;
70373;SDS011;57792;49.198;7.890;2022-09-09T05:13:29;3.97;;;1.30;;
70373;SDS011;57792;49.198;7.890;2022-09-09T05:14:32;6.40;;;1.10;;
70373;SDS011;57792;49.198;7.890;2022-09-09T05:15:32;3.78;;;1.10;;
70373;SDS011;57792;49.198;7.890;2022-09-09T05:16:32;4.43;;;1.13;;
70373;SDS011;57792;49.198;7.890;2022-09-09T05:17:33;8.77;;;1.13;;
70373;SDS011;57792;49.198;7.890;2022-09-09T05:18:33;4.32;;;1.10;;
70373;SDS011;57792;49.198;7.890;2022-09-09T05:19:34;4.23;;;1.10;;
70373;SDS011;57792;49.198;7.890;2022-09-09T05:20:34;4.40;;;1.07;;
70373;SDS011;57792;49.198;7.890;2022-09-09T05:21:34;4.53;;;1.07;;
70373;SDS011;57792;49.198;7.890;2022-09-09T05:22:35;4.93;;;1.30;;
70373;SDS011;57792;49.198;7.890;2022-09-09T05:23:36;5.25;;;1.35;;
70373;SDS011;57792;49.198;7.890;2022-09-09T05:24:37;4.38;;;1.20;;
70373;SDS011;57792;49.198;7.890;2022-09-09T05:25:38;4.05;;;1.10;;
70373;SDS011;57792;49.198;7.890;2022-09-09T05:26:38;5.60;;;1.30;;
70373;SDS011;57792;49.198;7.890;2022-09-09T05:27:38;3.63;;;1.30;;
70373;SDS011;57792;49.198;7.890;2022-09-09T05:28:39;3.20;;;1.08;;
70373;SDS011;57792;49.198;7.890;2022-09-09T05:29:39;4.73;;;1.20;;
70373;SDS011;57792;49.198;7.890;2022-09-09T05:30:41;5.20;;;1.23;;
70373;SDS011;57792;49.198;7.890;2022-09-09T05:31:42;7.47;;;1.50;;
70373;SDS011;57792;49.198;7.890;2022-09-09T05:32:42;6.73;;;1.43;;
70373;SDS011;57792;49.198;7.890;2022-09-09T05:33:44;6.28;;;1.50;;
70373;SDS011;57792;49.198;7.890;2022-09-09T05:34:45;5.47;;;1.30;;
70373;SDS011;57792;49.198;7.890;2022-09-09T05:35:46;7.82;;;1.30;;
70373;SDS011;57792;49.198;7.890;2022-09-09T05:36:47;7.60;;;1.40;;
70373;SDS011;57792;49.198;7.890;2022-09-09T05:37:47;5.97;;;1.30;;
70373;SDS011;57792;49.198;7.890;2022-09-09T05:38:48;3.30;;;1.10;;
70373;SDS011;57792;49.198;7.890;2022-09-09T05:39:49;3.85;;;1.20;;
70373;SDS011;57792;49.198;7.890;2022-09-09T05:40:50;5.13;;;1.20;;
70373;SDS011;57792;49.198;7.890;2022-09-09T05:41:52;3.47;;;1.10;;
70373;SDS011;57792;49.198;7.890;2022-09-09T05:42:52;5.53;;;1.23;;
70373;SDS011;57792;49.198;7.890;2022-09-09T05:43:53;3.40;;;1.20;;
70373;SDS011;57792;49.198;7.890;2022-09-09T05:44:53;3.90;;;1.13;;
70373;SDS011;57792;49.198;7.890;2022-09-09T05:47:04;4.43;;;1.13;;
70373;SDS011;57792;49.198;7.890;2022-09-09T05:48:05;4.10;;;1.23;;
70373;SDS011;57792;49.198;7.890;2022-09-09T05:49:05;5.65;;;1.40;;
70373;SDS011;57792;49.198;7.890;2022-09-09T05:50:06;4.50;;;1.13;;
70373;SDS011;57792;49.198;7.890;2022-09-09T05:51:11;6.07;;;1.13;;
70373;SDS011;57792;49.198;7.890;2022-09-09T05:52:15;9.18;;;1.30;;
70373;SDS011;57792;49.198;7.890;2022-09-09T05:53:15;5.47;;;1.20;;
70373;SDS011;57792;49.198;7.890;2022-09-09T05:54:17;4.35;;;1.33;;
70373;SDS011;57792;49.198;7.890;2022-09-09T05:55:17;3.50;;;1.30;;
70373;SDS011;57792;49.198;7.890;2022-09-09T05:56:18;3.70;;;1.33;;
70373;SDS011;57792;49.198;7.890;2022-09-09T05:57:25;5.90;;;1.20;;
70373;SDS011;57792;49.198;7.890;2022-09-09T05:58:25;6.20;;;1.30;;
70373;SDS011;57792;49.198;7.890;2022-09-09T05:59:25;4.13;;;1.23;;
70373;SDS011;57792;49.198;7.890;2022-09-09T06:00:26;3.70;;;1.20;;
70373;SDS011;57792;49.198;7.890;2022-09-09T06:01:28;5.07;;;1.10;;
70373;SDS011;57792;49.198;7.890;2022-09-09T06:02:30;4.33;;;1.23;;
70373;SDS011;57792;49.198;7.890;2022-09-09T06:03:36;4.22;;;1.17;;
70373;SDS011;57792;49.198;7.890;2022-09-09T06:04:38;4.35;;;1.13;;
70373;SDS011;57792;49.198;7.890;2022-09-09T06:05:38;5.72;;;1.27;;
70373;SDS011;57792;49.198;7.890;2022-09-09T06:06:38;4.80;;;1.00;;
70373;SDS011;57792;49.198;7.890;2022-09-09T06:07:39;4.90;;;1.02;;
70373;SDS011;57792;49.198;7.890;2022-09-09T06:08:44;5.22;;;1.58;;
70373;SDS011;57792;49.198;7.890;2022-09-09T06:09:45;6.93;;;1.20;;
70373;SDS011;57792;49.198;7.890;2022-09-09T06:10:45;4.20;;;1.57;;
70373;SDS011;57792;49.198;7.890;2022-09-09T06:11:45;4.57;;;1.17;;
70373;SDS011;57792;49.198;7.890;2022-09-09T06:12:46;5.57;;;1.50;;
70373;SDS011;57792;49.198;7.890;2022-09-09T06:13:46;4.27;;;1.40;;
70373;SDS011;57792;49.198;7.890;2022-09-09T06:14:47;4.15;;;1.40;;
70373;SDS011;57792;49.198;7.890;2022-09-09T06:15:51;4.50;;;1.40;;
70373;SDS011;57792;49.198;7.890;2022-09-09T06:16:52;4.05;;;1.45;;
70373;SDS011;57792;49.198;7.890;2022-09-09T06:17:55;5.47;;;1.33;;
70373;SDS011;57792;49.198;7.890;2022-09-09T06:18:56;4.57;;;1.70;;
70373;SDS011;57792;49.198;7.890;2022-09-09T06:19:57;5.77;;;1.60;;
70373;SDS011;57792;49.198;7.890;2022-09-09T06:20:59;4.07;;;1.40;;
70373;SDS011;57792;49.198;7.890;2022-09-09T06:22:01;4.68;;;1.30;;
70373;SDS011;57792;49.198;7.890;2022-09-09T06:23:01;4.87;;;1.50;;
70373;SDS011;57792;49.198;7.890;2022-09-09T06:24:03;5.15;;;1.50;;
70373;SDS011;57792;49.198;7.890;2022-09-09T06:25:05;3.70;;;1.50;;
70373;SDS011;57792;49.198;7.890;2022-09-09T06:26:10;5.72;;;1.40;;
70373;SDS011;57792;49.198;7.890;2022-09-09T06:27:12;3.50;;;1.40;;
70373;SDS011;57792;49.198;7.890;2022-09-09T06:28:13;4.87;;;1.60;;
70373;SDS011;57792;49.198;7.890;2022-09-09T06:29:14;4.05;;;1.63;;
70373;SDS011;57792;49.198;7.890;2022-09-09T06:30:14;4.97;;;1.47;;
70373;SDS011;57792;49.198;7.890;2022-09-09T06:31:18;6.70;;;1.70;;
70373;SDS011;57792;49.198;7.890;2022-09-09T06:32:23;4.10;;;1.45;;
70373;SDS011;57792;49.198;7.890;2022-09-09T06:33:23;4.10;;;1.63;;
70373;SDS011;57792;49.198;7.890;2022-09-09T06:34:24;6.63;;;1.50;;
70373;SDS011;57792;49.198;7.890;2022-09-09T06:35:24;6.95;;;1.60;;
70373;SDS011;57792;49.198;7.890;2022-09-09T06:36:25;4.30;;;1.67;;
70373;SDS011;57792;49.198;7.890;2022-09-09T06:37:30;4.75;;;1.60;;
70373;SDS011;57792;49.198;7.890;2022-09-09T06:38:31;4.60;;;1.50;;
70373;SDS011;57792;49.198;7.890;2022-09-09T06:39:32;7.17;;;1.50;;
70373;SDS011;57792;49.198;7.890;2022-09-09T06:40:32;7.57;;;1.83;;
70373;SDS011;57792;49.198;7.890;2022-09-09T06:41:33;10.90;;;1.80;;
70373;SDS011;57792;49.198;7.890;2022-09-09T06:42:33;8.18;;;1.67;;
70373;SDS011;57792;49.198;7.890;2022-09-09T06:43:33;8.23;;;1.63;;
70373;SDS011;57792;49.198;7.890;2022-09-09T06:44:34;7.85;;;1.60;;
70373;SDS011;57792;49.198;7.890;2022-09-09T06:45:35;5.07;;;1.70;;
70373;SDS011;57792;49.198;7.890;2022-09-09T06:46:36;4.00;;;1.50;;
70373;SDS011;57792;49.198;7.890;2022-09-09T06:47:36;5.80;;;1.80;;
70373;SDS011;57792;49.198;7.890;2022-09-09T06:48:38;6.20;;;1.80;;
70373;SDS011;57792;49.198;7.890;2022-09-09T06:49:40;4.88;;;1.60;;
70373;SDS011;57792;49.198;7.890;2022-09-09T06:50:41;6.40;;;1.93;;
70373;SDS011;57792;49.198;7.890;2022-09-09T06:51:41;7.00;;;1.80;;
70373;SDS011;57792;49.198;7.890;2022-09-09T06:52:42;6.20;;;1.90;;
70373;SDS011;57792;49.198;7.890;2022-09-09T06:53:49;6.43;;;2.17;;
70373;SDS011;57792;49.198;7.890;2022-09-09T06:54:51;5.15;;;1.80;;
70373;SDS011;57792;49.198;7.890;2022-09-09T06:55:51;5.13;;;1.77;;
70373;SDS011;57792;49.198;7.890;2022-09-09T06:56:51;4.73;;;1.67;;
70373;SDS011;57792;49.198;7.890;2022-09-09T06:57:52;5.53;;;1.70;;
70373;SDS011;57792;49.198;7.890;2022-09-09T06:58:52;5.03;;;1.70;;
70373;SDS011;57792;49.198;7.890;2022-09-09T06:59:54;6.10;;;1.67;;
70373;SDS011;57792;49.198;7.890;2022-09-09T07:01:04;6.03;;;1.97;;
70373;SDS011;57792;49.198;7.890;2022-09-09T07:02:07;4.85;;;1.75;;
70373;SDS011;57792;49.198;7.890;2022-09-09T07:03:07;7.40;;;2.10;;
70373;SDS011;57792;49.198;7.890;2022-09-09T07:04:09;6.72;;;1.90;;
70373;SDS011;57792;49.198;7.890;2022-09-09T07:05:11;5.20;;;1.90;;
70373;SDS011;57792;49.198;7.890;2022-09-09T07:06:14;5.67;;;2.10;;
70373;SDS011;57792;49.198;7.890;2022-09-09T07:07:17;9.05;;;2.60;;
70373;SDS011;57792;49.198;7.890;2022-09-09T07:08:17;6.40;;;2.60;;
70373;SDS011;57792;49.198;7.890;2022-09-09T07:09:18;10.18;;;3.10;;
70373;SDS011;57792;49.198;7.890;2022-09-09T07:10:18;5.90;;;2.70;;